createdAt,value
2019-05-30T00:02:21.383Z,71.03
2019-05-30T00:04:56.099Z,71.09
2019-05-30T00:07:30.316Z,70.54
2019-05-30T00:10:05.201Z,70.90
2019-05-30T00:12:38.487Z,71.03
2019-05-30T00:15:11.769Z,70.72
2019-05-30T00:17:45.593Z,71.02
2019-05-30T00:20:19.121Z,71.12
2019-05-30T00:22:52.710Z,71.13
2019-05-30T00:25:26.514Z,71.13
2019-05-30T00:28:01.335Z,71.36
2019-05-30T00:30:35.151Z,71.19
2019-05-30T00:33:08.671Z,71.04
2019-05-30T00:35:42.554Z,71.06
2019-05-30T00:38:15.803Z,71.04
2019-05-30T00:40:49.454Z,71.12
2019-05-30T00:43:23.539Z,70.79
2019-05-30T00:45:57.942Z,70.65
2019-05-30T00:48:42.975Z,70.82
2019-05-30T00:51:28.295Z,70.55
2019-05-30T00:54:13.792Z,70.32
2019-05-30T00:56:56.690Z,70.01
2019-05-30T00:59:39.356Z,70.09
2019-05-30T01:02:30.014Z,69.97
2019-05-30T01:05:14.627Z,69.77
2019-05-30T01:07:48.537Z,69.50
2019-05-30T01:10:32.826Z,69.51
2019-05-30T01:13:07.227Z,69.46
2019-05-30T01:15:41.305Z,69.57
2019-05-30T01:18:15.093Z,69.75
2019-05-30T01:20:49.180Z,69.82
2019-05-30T01:23:36.474Z,69.61
2019-05-30T01:26:21.111Z,69.49
2019-05-30T01:28:55.076Z,69.78
2019-05-30T01:31:38.121Z,69.96
2019-05-30T01:34:11.821Z,69.67
2019-05-30T01:36:45.113Z,69.83
2019-05-30T01:39:27.520Z,70.02
2019-05-30T01:42:01.904Z,70.23
2019-05-30T01:44:35.246Z,70.24
2019-05-30T01:47:17.140Z,70.33
2019-05-30T01:49:50.467Z,70.24
2019-05-30T01:52:24.413Z,70.49
2019-05-30T01:54:58.540Z,70.48
2019-05-30T01:57:41.183Z,70.46
2019-05-30T02:00:21.173Z,70.70
2019-05-30T02:03:09.653Z,70.63
2019-05-30T02:05:43.285Z,70.86
2019-05-30T02:08:16.794Z,71.25
2019-05-30T02:10:50.447Z,71.21
2019-05-30T02:13:24.348Z,71.31
2019-05-30T02:15:59.495Z,71.15
2019-05-30T02:18:33.154Z,70.94
2019-05-30T02:21:06.432Z,70.96
2019-05-30T02:23:40.277Z,71.28
2019-05-30T02:26:13.496Z,71.33
2019-05-30T02:28:48.492Z,71.05
2019-05-30T02:31:38.282Z,70.80
2019-05-30T02:33:58.021Z,70.82
2019-05-30T02:36:31.837Z,71.13
2019-05-30T02:39:09.681Z,70.93
2019-05-30T02:41:42.928Z,70.81
2019-05-30T02:44:27.275Z,71.24
2019-05-30T02:47:01.458Z,71.10
2019-05-30T02:49:36.052Z,70.56
2019-05-30T02:52:10.825Z,70.16
2019-05-30T02:54:44.931Z,70.05
2019-05-30T02:57:18.311Z,69.86
2019-05-30T02:59:51.940Z,70.18
2019-05-30T03:02:25.178Z,68.98
2019-05-30T03:04:58.340Z,69.66
2019-05-30T03:07:43.278Z,68.30
2019-05-30T03:10:17.202Z,68.64
2019-05-30T03:13:01.744Z,68.17
2019-05-30T03:15:52.778Z,68.47
2019-05-30T03:18:26.088Z,68.36
2019-05-30T03:20:59.639Z,68.85
2019-05-30T03:23:32.711Z,67.76
2019-05-30T03:26:09.738Z,68.51
2019-05-30T03:28:42.024Z,68.20
2019-05-30T03:31:27.302Z,69.50
2019-05-30T03:34:05.761Z,69.40
2019-05-30T03:36:46.661Z,68.20
2019-05-30T03:39:28.678Z,67.39
2019-05-30T03:42:04.418Z,67.65
2019-05-30T03:44:49.671Z,65.68
2019-05-30T03:47:25.155Z,65.79
2019-05-30T03:50:00.585Z,66.69
2019-05-30T03:52:34.303Z,66.10
2019-05-30T03:55:23.713Z,66.16
2019-05-30T03:58:07.782Z,66.02
2019-05-30T04:00:45.830Z,65.98
2019-05-30T04:03:47.871Z,65.45
2019-05-30T04:06:30.215Z,65.22
2019-05-30T04:09:09.836Z,65.89
2019-05-30T04:11:49.237Z,65.75
2019-05-30T04:14:26.535Z,66.22
2019-05-30T04:17:00.499Z,65.47
2019-05-30T04:19:34.158Z,65.66
2019-05-30T04:22:07.313Z,64.79
2019-05-30T04:24:41.718Z,65.57
2019-05-30T04:27:23.696Z,65.26
2019-05-30T04:29:57.227Z,65.19
2019-05-30T04:32:30.744Z,65.96
2019-05-30T04:35:03.915Z,66.55
2019-05-30T04:37:46.850Z,66.04
2019-05-30T04:40:21.160Z,65.75
2019-05-30T04:42:54.769Z,65.44
2019-05-30T04:45:28.614Z,65.34
2019-05-30T04:48:01.489Z,64.99
2019-05-30T04:50:34.818Z,64.73
2019-05-30T04:53:10.151Z,64.38
2019-05-30T04:55:44.554Z,64.64
2019-05-30T04:58:21.046Z,65.03
2019-05-30T05:00:53.409Z,65.23
2019-05-30T05:03:44.262Z,65.45
2019-05-30T05:06:13.783Z,65.17
2019-05-30T05:08:47.225Z,64.63
2019-05-30T05:11:22.949Z,65.14
2019-05-30T05:13:55.597Z,65.12
2019-05-30T05:16:35.575Z,64.70
2019-05-30T05:19:14.888Z,63.99
2019-05-30T05:21:48.109Z,64.25
2019-05-30T05:24:21.944Z,64.87
2019-05-30T05:26:55.611Z,64.38
2019-05-30T05:29:29.139Z,64.68
2019-05-30T05:32:02.594Z,64.37
2019-05-30T05:34:45.848Z,63.97
2019-05-30T05:37:19.170Z,64.00
2019-05-30T05:39:52.863Z,63.84
2019-05-30T05:42:28.493Z,63.84
2019-05-30T05:45:01.827Z,64.10
2019-05-30T05:47:35.508Z,63.79
2019-05-30T05:50:09.621Z,63.68
2019-05-30T05:52:53.161Z,63.80
2019-05-30T05:55:26.919Z,63.33
2019-05-30T05:58:09.863Z,63.44
2019-05-30T06:00:43.129Z,63.17
2019-05-30T06:03:18.548Z,63.14
2019-05-30T06:05:53.581Z,63.41
2019-05-30T06:08:42.311Z,62.81
2019-05-30T06:11:16.611Z,62.93
2019-05-30T06:13:50.832Z,62.81
2019-05-30T06:16:24.189Z,63.31
2019-05-30T06:18:57.556Z,62.86
2019-05-30T06:21:30.879Z,63.64
2019-05-30T06:24:12.775Z,63.38
2019-05-30T06:26:46.329Z,63.21
2019-05-30T06:29:20.125Z,63.96
2019-05-30T06:31:53.375Z,63.38
2019-05-30T06:34:38.086Z,63.24
2019-05-30T06:37:01.969Z,63.15
2019-05-30T06:39:35.455Z,63.42
2019-05-30T06:42:09.192Z,62.67
2019-05-30T06:44:42.758Z,62.89
2019-05-30T06:47:16.405Z,63.15
2019-05-30T06:49:49.970Z,63.54
2019-05-30T06:52:27.079Z,63.23
2019-05-30T06:55:00.795Z,63.81
2019-05-30T06:57:34.116Z,64.18
2019-05-30T07:00:08.034Z,63.75
2019-05-30T07:02:41.631Z,63.79
2019-05-30T07:05:15.648Z,64.23
2019-05-30T07:07:58.015Z,63.58
2019-05-30T07:10:31.703Z,64.40
2019-05-30T07:13:05.750Z,64.48
2019-05-30T07:15:55.176Z,64.73
2019-05-30T07:18:33.364Z,63.99
2019-05-30T07:21:03.900Z,65.04
2019-05-30T07:23:39.524Z,63.98
2019-05-30T07:26:15.760Z,64.11
2019-05-30T07:28:49.567Z,63.79
2019-05-30T07:31:24.035Z,65.10
2019-05-30T07:34:07.405Z,64.49
2019-05-30T07:36:41.365Z,65.21
2019-05-30T07:39:15.269Z,64.16
2019-05-30T07:42:06.438Z,63.27
2019-05-30T07:44:50.451Z,63.73
2019-05-30T07:47:25.996Z,63.37
2019-05-30T07:50:10.462Z,62.49
2019-05-30T07:52:56.043Z,63.16
2019-05-30T07:55:40.020Z,63.50
2019-05-30T07:58:13.338Z,65.05
2019-05-30T08:00:47.205Z,65.28
2019-05-30T08:03:21.023Z,65.64
2019-05-30T08:06:06.267Z,65.77
2019-05-30T08:08:48.778Z,65.50
2019-05-30T08:11:22.100Z,65.73
2019-05-30T08:13:55.449Z,66.85
2019-05-30T08:16:29.302Z,67.60
2019-05-30T08:19:14.550Z,67.80
2019-05-30T08:21:48.158Z,68.18
2019-05-30T08:24:21.757Z,69.09
2019-05-30T08:26:55.725Z,70.44
2019-05-30T08:29:30.130Z,71.37
2019-05-30T08:32:03.560Z,72.36
2019-05-30T08:34:36.813Z,73.44
2019-05-30T08:37:20.896Z,75.00
2019-05-30T08:39:54.867Z,75.88
2019-05-30T08:42:29.488Z,76.71
2019-05-30T08:45:02.858Z,77.06
2019-05-30T08:47:37.852Z,77.33
2019-05-30T08:50:12.128Z,77.47
2019-05-30T08:52:46.031Z,77.24
2019-05-30T08:55:21.015Z,77.83
2019-05-30T08:57:54.770Z,77.91
2019-05-30T09:00:28.943Z,77.24
2019-05-30T09:03:10.905Z,76.79
2019-05-30T09:05:59.232Z,76.78
2019-05-30T09:08:19.669Z,77.05
2019-05-30T09:10:53.028Z,77.68
2019-05-30T09:13:26.650Z,77.51
2019-05-30T09:16:01.727Z,77.73
2019-05-30T09:18:45.379Z,77.56
2019-05-30T09:21:18.924Z,76.81
2019-05-30T09:23:52.192Z,76.81
2019-05-30T09:26:25.529Z,76.65
2019-05-30T09:28:59.040Z,77.29
2019-05-30T09:31:32.373Z,77.38
2019-05-30T09:34:05.798Z,77.33
2019-05-30T09:36:48.973Z,76.42
2019-05-30T09:39:32.291Z,76.35
2019-05-30T09:42:05.734Z,74.86
2019-05-30T09:44:40.532Z,74.86
2019-05-30T09:47:14.641Z,74.99
2019-05-30T09:49:48.609Z,74.99
2019-05-30T09:52:30.968Z,75.10
2019-05-30T09:55:05.054Z,75.17
2019-05-30T09:57:53.395Z,75.53
2019-05-30T10:00:27.168Z,75.19
2019-05-30T10:03:02.875Z,74.76
2019-05-30T10:05:52.579Z,73.91
2019-05-30T10:08:26.345Z,73.66
2019-05-30T10:10:59.842Z,73.25
2019-05-30T10:13:33.926Z,73.25
2019-05-30T10:16:16.675Z,73.36
2019-05-30T10:18:58.986Z,73.28
2019-05-30T10:21:32.116Z,73.13
2019-05-30T10:24:05.815Z,73.13
2019-05-30T10:26:37.876Z,71.98
2019-05-30T10:29:11.834Z,72.13
2019-05-30T10:31:46.394Z,72.13
2019-05-30T10:34:20.902Z,71.12
2019-05-30T10:36:54.141Z,71.02
2019-05-30T10:39:28.069Z,70.67
2019-05-30T10:42:01.545Z,70.60
2019-05-30T10:44:35.084Z,70.42
2019-05-30T10:47:08.801Z,71.28
2019-05-30T10:49:41.992Z,70.23
2019-05-30T10:52:15.663Z,70.21
2019-05-30T10:54:49.563Z,69.39
2019-05-30T10:57:39.709Z,68.91
2019-05-30T11:00:14.723Z,68.42
2019-05-30T11:02:49.455Z,68.18
2019-05-30T11:05:23.064Z,68.74
2019-05-30T11:08:06.105Z,68.47
2019-05-30T11:10:39.271Z,68.32
2019-05-30T11:13:13.915Z,68.19
2019-05-30T11:15:48.750Z,68.67
2019-05-30T11:18:22.663Z,68.00
2019-05-30T11:20:56.522Z,68.01
2019-05-30T11:23:29.866Z,67.90
2019-05-30T11:26:04.944Z,68.19
2019-05-30T11:28:38.931Z,68.28
2019-05-30T11:31:12.666Z,68.75
2019-05-30T11:33:46.187Z,68.42
2019-05-30T11:36:19.761Z,68.31
2019-05-30T11:38:55.356Z,68.21
2019-05-30T11:41:37.815Z,68.60
2019-05-30T11:44:11.133Z,68.86
2019-05-30T11:46:44.666Z,69.23
2019-05-30T11:49:18.063Z,69.02
2019-05-30T11:51:51.688Z,69.16
2019-05-30T11:54:25.012Z,69.46
2019-05-30T11:57:06.853Z,69.08
2019-05-30T11:59:40.658Z,69.19
2019-05-30T12:02:14.187Z,69.04
2019-05-30T12:04:47.523Z,69.68
2019-05-30T12:07:35.452Z,69.86
2019-05-30T12:09:56.894Z,69.38
2019-05-30T12:12:39.254Z,69.77
2019-05-30T12:15:12.726Z,68.86
2019-05-30T12:17:46.017Z,68.86
2019-05-30T12:20:19.719Z,69.51
2019-05-30T12:22:53.681Z,69.52
2019-05-30T12:25:27.283Z,69.38
2019-05-30T12:28:03.712Z,69.80
2019-05-30T12:30:36.412Z,70.44
2019-05-30T12:33:10.523Z,70.55
2019-05-30T12:35:54.430Z,70.42
2019-05-30T12:38:27.833Z,69.76
2019-05-30T12:41:02.891Z,69.68
2019-05-30T12:43:36.572Z,69.26
2019-05-30T12:46:09.873Z,68.28
2019-05-30T12:48:43.065Z,67.80
2019-05-30T12:51:25.234Z,67.48
2019-05-30T12:53:58.590Z,67.08
2019-05-30T12:56:32.545Z,67.06
2019-05-30T12:59:07.132Z,65.67
2019-05-30T13:01:40.617Z,66.07
2019-05-30T13:04:14.527Z,66.53
2019-05-30T13:06:48.172Z,67.18
2019-05-30T13:09:21.776Z,67.25
2019-05-30T13:11:56.360Z,67.65
2019-05-30T13:14:30.017Z,67.88
2019-05-30T13:17:03.917Z,68.23
2019-05-30T13:19:59.065Z,68.69
2019-05-30T13:22:31.096Z,69.07
2019-05-30T13:25:21.502Z,68.62
2019-05-30T13:27:55.851Z,68.63
2019-05-30T13:30:48.759Z,69.34
2019-05-30T13:33:22.491Z,69.53
2019-05-30T13:36:10.942Z,69.30
2019-05-30T13:38:44.850Z,69.53
2019-05-30T13:41:29.888Z,68.01
2019-05-30T13:44:06.546Z,67.43
2019-05-30T13:46:39.311Z,66.85
2019-05-30T13:49:12.671Z,65.93
2019-05-30T13:51:58.788Z,66.34
2019-05-30T13:54:32.449Z,66.67
2019-05-30T13:57:07.870Z,67.43
2019-05-30T13:59:41.567Z,67.33
2019-05-30T14:02:14.886Z,67.80
2019-05-30T14:04:48.091Z,68.24
2019-05-30T14:07:21.290Z,67.98
2019-05-30T14:10:06.475Z,68.52
2019-05-30T14:12:40.446Z,67.92
2019-05-30T14:15:14.720Z,68.24
2019-05-30T14:18:00.929Z,68.45
2019-05-30T14:20:43.308Z,68.42
2019-05-30T14:23:17.321Z,68.64
2019-05-30T14:26:01.253Z,68.75
2019-05-30T14:28:34.704Z,68.88
2019-05-30T14:31:08.979Z,68.77
2019-05-30T14:33:41.724Z,69.21
2019-05-30T14:36:15.083Z,69.50
2019-05-30T14:38:57.669Z,69.74
2019-05-30T14:41:23.961Z,70.07
2019-05-30T14:43:58.432Z,70.36
2019-05-30T14:46:40.459Z,70.05
2019-05-30T14:49:14.411Z,70.57
2019-05-30T14:51:47.657Z,70.28
2019-05-30T14:54:21.924Z,70.92
2019-05-30T14:57:04.774Z,70.85
2019-05-30T14:59:47.247Z,71.20
2019-05-30T15:02:21.224Z,71.23
2019-05-30T15:05:03.661Z,71.25
2019-05-30T15:07:37.655Z,71.15
2019-05-30T15:10:21.463Z,71.41
2019-05-30T15:12:55.098Z,71.20
2019-05-30T15:15:28.445Z,71.18
2019-05-30T15:18:01.666Z,71.31
2019-05-30T15:20:35.047Z,71.30
2019-05-30T15:23:09.583Z,71.55
2019-05-30T15:25:44.051Z,71.90
2019-05-30T15:28:17.807Z,71.61
2019-05-30T15:30:50.988Z,71.40
2019-05-30T15:33:34.350Z,71.28
2019-05-30T15:36:08.565Z,71.50
2019-05-30T15:38:50.806Z,71.38
2019-05-30T15:41:24.011Z,71.60
2019-05-30T15:43:57.754Z,71.13
2019-05-30T15:46:31.352Z,71.06
2019-05-30T15:49:04.668Z,71.44
2019-05-30T15:51:37.846Z,70.98
2019-05-30T15:54:23.285Z,71.24
2019-05-30T15:57:05.307Z,71.43
2019-05-30T15:59:38.853Z,71.01
2019-05-30T16:02:12.480Z,71.20
2019-05-30T16:04:46.190Z,71.09
2019-05-30T16:07:20.809Z,70.94
2019-05-30T16:09:54.016Z,71.35
2019-05-30T16:12:39.477Z,71.12
2019-05-30T16:15:15.908Z,71.02
2019-05-30T16:17:49.328Z,70.85
2019-05-30T16:20:22.795Z,71.00
2019-05-30T16:22:56.574Z,71.00
2019-05-30T16:25:30.189Z,70.99
2019-05-30T16:28:03.939Z,70.68
2019-05-30T16:30:37.124Z,70.28
2019-05-30T16:33:10.833Z,70.22
2019-05-30T16:35:44.902Z,70.24
2019-05-30T16:38:18.139Z,70.16
2019-05-30T16:40:51.353Z,70.39
2019-05-30T16:43:24.987Z,70.13
2019-05-30T16:45:58.178Z,70.13
2019-05-30T16:48:32.922Z,69.51
2019-05-30T16:51:06.107Z,70.19
2019-05-30T16:53:39.887Z,70.33
2019-05-30T16:56:12.260Z,70.00
2019-05-30T16:58:45.890Z,69.92
2019-05-30T17:01:19.846Z,69.89
2019-05-30T17:04:03.006Z,70.10
2019-05-30T17:06:36.936Z,70.35
2019-05-30T17:09:10.291Z,70.27
2019-05-30T17:11:43.943Z,70.30
2019-05-30T17:14:17.604Z,70.56
2019-05-30T17:16:51.205Z,70.59
2019-05-30T17:19:24.596Z,70.54
2019-05-30T17:21:58.091Z,70.25
2019-05-30T17:24:39.875Z,70.57
2019-05-30T17:27:13.040Z,71.05
2019-05-30T17:29:46.226Z,70.56
2019-05-30T17:32:28.255Z,70.71
2019-05-30T17:35:02.039Z,70.95
2019-05-30T17:37:35.982Z,70.75
2019-05-30T17:40:18.671Z,70.96
2019-05-30T17:42:52.297Z,70.76
2019-05-30T17:45:27.046Z,70.65
2019-05-30T17:48:15.558Z,70.35
2019-05-30T17:50:35.582Z,70.25
2019-05-30T17:53:08.754Z,70.31
2019-05-30T17:55:41.941Z,70.47
2019-05-30T17:58:15.638Z,70.54
2019-05-30T18:01:03.940Z,70.61
2019-05-30T18:03:37.211Z,70.78
2019-05-30T18:06:10.452Z,71.19
2019-05-30T18:08:52.671Z,71.38
2019-05-30T18:11:38.235Z,71.69
2019-05-30T18:14:11.789Z,71.74
2019-05-30T18:16:45.651Z,71.77
2019-05-30T18:19:19.451Z,72.09
2019-05-30T18:21:55.118Z,72.12
2019-05-30T18:24:46.697Z,72.21
2019-05-30T18:27:29.753Z,72.32
2019-05-30T18:30:03.808Z,72.58
2019-05-30T18:32:36.994Z,72.59
2019-05-30T18:35:22.183Z,72.44
2019-05-30T18:38:10.120Z,72.73
2019-05-30T18:40:43.425Z,72.79
2019-05-30T18:43:16.758Z,72.79
2019-05-30T18:45:50.257Z,72.84
2019-05-30T18:48:23.486Z,73.05
2019-05-30T18:51:05.810Z,72.92
2019-05-30T18:53:39.288Z,72.84
2019-05-30T18:56:12.790Z,73.00
2019-05-30T18:58:46.286Z,73.08
2019-05-30T19:01:19.715Z,73.10
2019-05-30T19:03:53.588Z,72.99
2019-05-30T19:06:28.211Z,72.96
2019-05-30T19:09:02.344Z,73.17
2019-05-30T19:11:36.999Z,73.18
2019-05-30T19:14:11.205Z,73.17
2019-05-30T19:16:44.567Z,73.18
2019-05-30T19:19:18.027Z,73.30
2019-05-30T19:21:51.653Z,73.51
2019-05-30T19:24:26.025Z,73.59
2019-05-30T19:26:59.554Z,73.57
2019-05-30T19:29:34.888Z,73.66
2019-05-30T19:32:08.514Z,73.66
2019-05-30T19:34:41.619Z,73.73
2019-05-30T19:37:15.607Z,73.92
2019-05-30T19:39:49.745Z,74.11
2019-05-30T19:42:31.697Z,74.30
2019-05-30T19:45:05.154Z,74.40
2019-05-30T19:47:38.923Z,74.49
2019-05-30T19:50:12.451Z,74.61
2019-05-30T19:52:46.958Z,74.74
2019-05-30T19:55:21.618Z,74.84
2019-05-30T19:57:55.896Z,74.87
2019-05-30T20:00:29.863Z,74.93
2019-05-30T20:03:03.255Z,75.03
2019-05-30T20:05:36.808Z,75.18
2019-05-30T20:08:20.472Z,75.16
2019-05-30T20:10:54.287Z,75.17
2019-05-30T20:13:37.210Z,75.32
2019-05-30T20:16:19.381Z,75.33
2019-05-30T20:18:53.044Z,75.20
2019-05-30T20:21:26.841Z,75.23
2019-05-30T20:24:00.033Z,75.32
2019-05-30T20:26:34.412Z,75.44
2019-05-30T20:29:16.487Z,75.28
2019-05-30T20:31:59.816Z,75.37
2019-05-30T20:34:34.831Z,75.50
2019-05-30T20:37:08.774Z,75.48
2019-05-30T20:39:43.046Z,75.47
2019-05-30T20:42:19.465Z,75.44
2019-05-30T20:44:51.695Z,75.46
2019-05-30T20:47:25.772Z,75.60
2019-05-30T20:49:59.485Z,75.67
2019-05-30T20:52:33.243Z,75.69
2019-05-30T20:55:07.392Z,75.73
2019-05-30T20:57:49.365Z,75.71
2019-05-30T21:00:26.043Z,75.86
2019-05-30T21:02:59.596Z,75.89
2019-05-30T21:05:33.627Z,75.90
2019-05-30T21:08:07.039Z,75.87
2019-05-30T21:10:41.260Z,75.77
2019-05-30T21:13:23.351Z,75.76
2019-05-30T21:15:59.271Z,75.93
2019-05-30T21:18:52.107Z,76.15
2019-05-30T21:21:35.877Z,76.23
2019-05-30T21:24:09.894Z,76.24
2019-05-30T21:26:43.251Z,76.34
2019-05-30T21:29:17.141Z,76.53
2019-05-30T21:31:50.694Z,76.47
2019-05-30T21:34:24.236Z,76.47
2019-05-30T21:36:57.444Z,76.54
2019-05-30T21:39:31.164Z,76.62
2019-05-30T21:42:04.398Z,76.68
2019-05-30T21:44:38.459Z,76.76
2019-05-30T21:47:12.094Z,76.69
2019-05-30T21:49:45.271Z,76.69
2019-05-30T21:52:18.517Z,76.68
2019-05-30T21:55:03.235Z,76.76
2019-05-30T21:57:35.605Z,76.95
2019-05-30T22:00:12.491Z,76.92
2019-05-30T22:02:50.776Z,77.10
2019-05-30T22:05:24.465Z,77.03
2019-05-30T22:07:57.872Z,77.16
2019-05-30T22:10:31.524Z,77.17
2019-05-30T22:13:09.495Z,77.21
2019-05-30T22:15:41.611Z,77.33
2019-05-30T22:18:15.930Z,77.42
2019-05-30T22:20:49.929Z,77.61
2019-05-30T22:23:32.208Z,77.72
2019-05-30T22:26:05.513Z,77.74
2019-05-30T22:28:39.088Z,77.76
2019-05-30T22:31:12.077Z,77.80
2019-05-30T22:33:54.112Z,77.95
2019-05-30T22:36:27.795Z,77.99
2019-05-30T22:39:01.015Z,78.09
2019-05-30T22:41:36.485Z,78.23
2019-05-30T22:44:10.223Z,78.31
2019-05-30T22:46:44.079Z,78.47
2019-05-30T22:49:17.297Z,78.55
2019-05-30T22:51:51.161Z,78.93
2019-05-30T22:54:24.728Z,78.95
2019-05-30T22:57:01.335Z,78.97
2019-05-30T22:59:33.218Z,79.19
2019-05-30T23:02:06.413Z,79.18
2019-05-30T23:04:39.895Z,79.37
2019-05-30T23:07:22.329Z,79.41
2019-05-30T23:10:05.381Z,79.49
2019-05-30T23:12:54.065Z,79.69
2019-05-30T23:15:36.535Z,80.11
2019-05-30T23:18:10.000Z,80.11
2019-05-30T23:20:43.923Z,80.13
2019-05-30T23:23:18.749Z,80.14
2019-05-30T23:25:53.331Z,80.32
2019-05-30T23:28:27.867Z,80.50
2019-05-30T23:31:10.217Z,80.69
2019-05-30T23:33:43.731Z,80.88
2019-05-30T23:36:17.707Z,81.00
2019-05-30T23:38:51.308Z,81.32
2019-05-30T23:41:24.693Z,81.49
2019-05-30T23:44:10.542Z,81.84
2019-05-30T23:46:32.937Z,82.03
2019-05-30T23:49:07.368Z,82.30
2019-05-30T23:51:40.577Z,82.38
2019-05-30T23:54:14.278Z,82.46
2019-05-30T23:56:47.816Z,82.65
2019-05-30T23:59:22.472Z,82.79
